Time;durP1;ratioP1;P1;durP2;ratioP2;P2;SDS_P1;SDS_P2;PMS_P1;PMS_P2;Temp;Humidity;BMP_temperature;BMP_pressure;BME280_temperature;BME280_humidity;BME280_pressure;Samples;Min_cycle;Max_cycle;Signal;HPM_P1;HPM_P2
2022/06/09 00:01:16;;;;;;;21.52;3.85;;;16.00;99.90;;;;;;5054748;28;20258;-79
2022/06/09 00:04:00;;;;;;;14.57;2.88;;;15.90;99.90;;;;;;5054691;28;20643;-79
2022/06/09 00:06:34;;;;;;;14.70;2.22;;;16.10;99.90;;;;;;5054940;28;20238;-79
2022/06/09 00:09:01;;;;;;;16.98;3.60;;;16.00;99.90;;;;;;5054800;28;20197;-78
2022/06/09 00:11:27;;;;;;;22.63;3.53;;;16.10;99.90;;;;;;5054973;28;20221;-79
2022/06/09 00:13:53;;;;;;;17.65;2.60;;;16.00;99.90;;;;;;5054836;28;20174;-78
2022/06/09 00:16:19;;;;;;;20.73;3.35;;;15.90;99.90;;;;;;5054739;28;20528;-78
2022/06/09 00:18:45;;;;;;;15.85;2.63;;;15.80;99.90;;;;;;5054591;28;20203;-79
2022/06/09 00:21:11;;;;;;;13.27;2.42;;;15.70;99.90;;;;;;5054151;28;20167;-79
2022/06/09 00:23:37;;;;;;;12.80;2.80;;;15.70;99.90;;;;;;5054859;28;20530;-78
2022/06/09 00:26:04;;;;;;;22.35;3.03;;;15.70;99.90;;;;;;5054766;28;20187;-79
2022/06/09 00:28:31;;;;;;;25.85;3.50;;;15.70;99.90;;;;;;5054556;28;20572;-79
2022/06/09 00:30:56;;;;;;;20.33;2.72;;;15.60;99.90;;;;;;5054521;28;20213;-79
2022/06/09 00:33:22;;;;;;;14.80;3.53;;;15.60;99.90;;;;;;5054291;28;20208;-79
2022/06/09 00:35:47;;;;;;;17.33;3.47;;;15.50;99.90;;;;;;5054395;28;20198;-80
2022/06/09 00:38:13;;;;;;;23.30;3.67;;;15.50;99.90;;;;;;5054361;28;20620;-78
2022/06/09 00:40:40;;;;;;;20.67;2.35;;;15.40;99.90;;;;;;5054091;28;20210;-79
2022/06/09 00:43:06;;;;;;;19.88;3.03;;;15.50;99.90;;;;;;5054727;28;20643;-79
2022/06/09 00:45:37;;;;;;;15.68;2.83;;;15.50;99.90;;;;;;5054323;28;20528;-78
2022/06/09 00:48:20;;;;;;;18.25;3.13;;;15.60;99.90;;;;;;5054231;28;20163;-79
2022/06/09 00:50:50;;;;;;;26.23;2.65;;;15.60;99.90;;;;;;5054155;28;20167;-79
2022/06/09 00:53:24;;;;;;;24.50;2.85;;;15.70;99.90;;;;;;5054132;28;20183;-79
2022/06/09 00:55:52;;;;;;;12.57;3.25;;;15.70;99.90;;;;;;5053963;28;20175;-79
2022/06/09 00:58:21;;;;;;;13.23;2.60;;;15.60;99.90;;;;;;5054047;28;20164;-79
2022/06/09 01:00:57;;;;;;;24.65;4.18;;;15.60;99.90;;;;;;5054130;28;20203;-79
2022/06/09 01:03:28;;;;;;;20.23;3.10;;;15.60;99.90;;;;;;5071760;22;20155;-79
2022/06/09 01:06:21;;;;;;;20.40;3.50;;;15.60;99.90;;;;;;5072537;28;20209;-78
2022/06/09 01:09:08;;;;;;;18.63;2.88;;;15.40;99.90;;;;;;5072177;28;20214;-81
2022/06/09 01:11:34;;;;;;;24.85;3.53;;;15.40;99.90;;;;;;5073870;28;20198;-80
2022/06/09 01:14:00;;;;;;;11.10;2.13;;;15.30;99.90;;;;;;5074335;28;20251;-82
2022/06/09 01:16:26;;;;;;;17.05;3.42;;;15.20;99.90;;;;;;5073939;28;20174;-81
2022/06/09 01:18:59;;;;;;;24.08;3.17;;;15.30;99.90;;;;;;5073602;28;20213;-80
2022/06/09 01:21:47;;;;;;;22.48;2.92;;;15.30;99.90;;;;;;5073628;28;20162;-80
2022/06/09 01:24:32;;;;;;;24.98;3.53;;;15.30;99.90;;;;;;5071990;28;20177;-78
2022/06/09 01:27:14;;;;;;;11.85;3.22;;;15.30;99.90;;;;;;5071805;28;20170;-78
2022/06/09 01:30:06;;;;;;;24.83;3.28;;;15.40;99.90;;;;;;5072258;28;20609;-79
2022/06/09 01:32:44;;;;;;;16.45;2.42;;;15.20;99.90;;;;;;5073508;28;20181;-77
2022/06/09 01:35:35;;;;;;;16.52;3.15;;;15.20;99.90;;;;;;5071833;28;20174;-77
2022/06/09 01:38:00;;;;;;;24.73;3.78;;;15.10;99.90;;;;;;5073518;28;20162;-83
2022/06/09 01:40:28;;;;;;;26.10;3.30;;;15.20;99.90;;;;;;5073286;28;20705;-82
2022/06/09 01:42:56;;;;;;;19.17;2.92;;;15.20;99.90;;;;;;5073386;28;20173;-83
2022/06/09 01:45:36;;;;;;;12.07;2.78;;;15.30;99.90;;;;;;5073171;28;20209;-82
2022/06/09 01:48:11;;;;;;;18.45;2.92;;;15.20;99.90;;;;;;5073376;28;20154;-79
2022/06/09 01:51:05;;;;;;;24.77;3.50;;;15.10;99.90;;;;;;5073485;28;20182;-82
2022/06/09 01:53:45;;;;;;;23.60;2.83;;;15.10;99.90;;;;;;5073276;28;20171;-80
2022/06/09 01:56:31;;;;;;;32.20;3.97;;;15.10;99.90;;;;;;5073625;28;20215;-79
2022/06/09 01:59:03;;;;;;;19.50;3.72;;;15.00;99.90;;;;;;5073091;28;20213;-82
2022/06/09 02:01:38;;;;;;;44.13;3.40;;;14.70;99.90;;;;;;5073544;28;20177;-80
2022/06/09 02:04:10;;;;;;;24.42;4.53;;;14.80;99.90;;;;;;5072713;28;20652;-77
2022/06/09 02:06:36;;;;;;;28.27;4.10;;;14.90;99.90;;;;;;5072697;28;20170;-81
2022/06/09 02:09:04;;;;;;;21.75;3.50;;;14.80;99.90;;;;;;5072884;28;20190;-83
2022/06/09 02:11:30;;;;;;;25.65;3.90;;;14.80;99.90;;;;;;5071847;28;20200;-77
2022/06/09 02:13:57;;;;;;;36.97;3.72;;;14.80;99.90;;;;;;5072675;28;20166;-77
2022/06/09 02:16:23;;;;;;;17.25;3.15;;;14.80;99.90;;;;;;5072902;28;20177;-77
2022/06/09 02:18:52;;;;;;;28.35;3.45;;;14.70;99.90;;;;;;5072372;28;20613;-77
2022/06/09 02:21:20;;;;;;;19.73;3.33;;;14.80;99.90;;;;;;5071566;28;20504;-77
2022/06/09 02:23:47;;;;;;;22.20;3.63;;;14.80;99.90;;;;;;5072564;28;20163;-77
2022/06/09 02:26:14;;;;;;;18.55;3.63;;;14.70;99.90;;;;;;5072398;28;20619;-77
2022/06/09 02:28:40;;;;;;;24.42;3.97;;;14.70;99.90;;;;;;5072791;28;20195;-77
2022/06/09 02:31:06;;;;;;;12.38;2.80;;;14.60;99.90;;;;;;5072451;28;20171;-77
2022/06/09 02:33:32;;;;;;;23.23;2.83;;;14.70;99.90;;;;;;5072218;28;20163;-77
2022/06/09 02:35:58;;;;;;;24.98;2.80;;;14.70;99.90;;;;;;5072056;28;20170;-76
2022/06/09 02:38:24;;;;;;;19.08;3.17;;;14.80;99.90;;;;;;5072250;28;20220;-78
2022/06/09 02:40:51;;;;;;;19.05;2.95;;;14.70;99.90;;;;;;5072510;28;20578;-77
2022/06/09 02:43:16;;;;;;;20.83;3.22;;;14.70;99.90;;;;;;5071292;28;20519;-77
2022/06/09 02:45:43;;;;;;;17.05;3.03;;;14.60;99.90;;;;;;5072008;28;20224;-77
2022/06/09 02:48:09;;;;;;;28.98;4.03;;;14.50;99.90;;;;;;5072364;28;20637;-77
2022/06/09 02:50:36;;;;;;;19.60;4.22;;;14.50;99.90;;;;;;5071913;28;20242;-77
2022/06/09 02:53:02;;;;;;;25.13;3.65;;;14.40;99.90;;;;;;5071946;28;20615;-77
2022/06/09 02:55:29;;;;;;;21.52;3.78;;;14.50;99.90;;;;;;5072054;28;20391;-78
2022/06/09 02:57:55;;;;;;;29.00;3.85;;;14.50;99.90;;;;;;5072285;28;20181;-77
2022/06/09 03:00:20;;;;;;;24.77;3.72;;;14.40;99.90;;;;;;5070905;28;20214;-79
2022/06/09 03:02:58;;;;;;;24.08;4.53;;;14.60;99.90;;;;;;5072269;28;20245;-77
2022/06/09 03:05:24;;;;;;;25.48;4.20;;;14.50;99.90;;;;;;5070831;28;20226;-77
2022/06/09 03:07:50;;;;;;;15.15;3.63;;;14.40;99.90;;;;;;5071023;28;20229;-77
2022/06/09 03:10:16;;;;;;;19.08;4.25;;;14.30;99.90;;;;;;5072270;28;20186;-77
2022/06/09 03:12:42;;;;;;;24.73;4.22;;;14.10;99.90;;;;;;5070614;28;20252;-77
2022/06/09 03:15:10;;;;;;;17.77;3.90;;;14.30;99.90;;;;;;5070352;28;20571;-77
2022/06/09 03:17:36;;;;;;;14.98;3.85;;;14.20;99.90;;;;;;5071508;28;20174;-77
2022/06/09 03:20:04;;;;;;;22.27;3.33;;;14.20;99.90;;;;;;5071627;28;20206;-76
2022/06/09 03:22:30;;;;;;;15.10;4.15;;;14.20;99.90;;;;;;5072213;28;20204;-77
2022/06/09 03:24:56;;;;;;;24.95;3.42;;;14.20;99.90;;;;;;5071856;28;20646;-76
2022/06/09 03:27:22;;;;;;;13.88;3.97;;;14.40;99.90;;;;;;5071764;28;20247;-76
2022/06/09 03:29:47;;;;;;;20.90;4.13;;;14.40;99.90;;;;;;5071817;28;20643;-76
2022/06/09 03:32:13;;;;;;;26.23;3.85;;;14.50;99.90;;;;;;5070639;28;20193;-77
2022/06/09 03:34:38;;;;;;;17.65;3.50;;;14.50;99.90;;;;;;5075308;28;20512;-77
2022/06/09 03:37:04;;;;;;;27.75;3.95;;;14.40;99.90;;;;;;5075226;28;20220;-77
2022/06/09 03:39:30;;;;;;;16.27;4.05;;;14.50;99.90;;;;;;5075120;28;20732;-76
2022/06/09 03:41:55;;;;;;;16.35;3.20;;;14.40;99.90;;;;;;5074327;28;20178;-76
2022/06/09 03:44:21;;;;;;;19.52;3.35;;;14.40;99.90;;;;;;5075200;28;20638;-76
2022/06/09 03:46:47;;;;;;;24.80;4.22;;;14.30;99.90;;;;;;5074917;28;20580;-77
2022/06/09 03:49:12;;;;;;;30.58;5.05;;;14.50;99.90;;;;;;5075586;28;20179;-77
2022/06/09 03:51:38;;;;;;;17.70;3.45;;;14.30;99.90;;;;;;5075263;28;20193;-77
2022/06/09 03:54:04;;;;;;;15.00;4.35;;;14.30;99.90;;;;;;5073986;28;20201;-77
2022/06/09 03:56:29;;;;;;;19.23;3.97;;;14.30;99.90;;;;;;5075465;28;20677;-77
2022/06/09 03:58:55;;;;;;;7.65;2.65;;;14.30;99.90;;;;;;5073748;28;20252;-78
2022/06/09 04:01:20;;;;;;;20.00;3.58;;;14.40;99.90;;;;;;5073669;28;20216;-77
2022/06/09 04:03:47;;;;;;;29.42;4.00;;;14.40;99.90;;;;;;5073773;28;20196;-78
2022/06/09 04:06:16;;;;;;;18.60;3.50;;;14.60;99.90;;;;;;5073584;28;20169;-78
2022/06/09 04:08:41;;;;;;;13.32;3.58;;;14.80;99.90;;;;;;5074985;28;20226;-77
2022/06/09 04:11:08;;;;;;;17.02;3.53;;;15.10;99.90;;;;;;5074994;28;20197;-77
2022/06/09 04:13:34;;;;;;;14.50;3.08;;;15.10;99.90;;;;;;5074970;28;20200;-77
2022/06/09 04:15:59;;;;;;;16.38;3.40;;;15.10;99.90;;;;;;5073259;28;20182;-78
2022/06/09 04:18:25;;;;;;;18.30;4.28;;;15.10;99.90;;;;;;5074714;28;20227;-78
2022/06/09 04:20:50;;;;;;;26.27;3.20;;;15.30;99.90;;;;;;5074500;28;20194;-78
2022/06/09 04:23:16;;;;;;;19.98;4.20;;;15.30;99.90;;;;;;5074435;28;20164;-77
2022/06/09 04:25:42;;;;;;;11.95;3.35;;;15.30;99.90;;;;;;5074655;28;20167;-77
2022/06/09 04:28:07;;;;;;;10.85;3.10;;;15.30;99.90;;;;;;5074535;28;20500;-77
2022/06/09 04:30:33;;;;;;;24.95;3.58;;;15.30;99.90;;;;;;5073935;28;20621;-77
2022/06/09 04:32:58;;;;;;;19.77;2.78;;;15.40;99.90;;;;;;5074470;28;20163;-77
2022/06/09 04:35:25;;;;;;;19.63;3.13;;;15.40;99.90;;;;;;5072786;28;20273;-76
2022/06/09 04:38:00;;;;;;;20.08;3.75;;;15.40;99.90;;;;;;5073848;28;20198;-77
2022/06/09 04:40:35;;;;;;;20.30;3.35;;;15.40;99.90;;;;;;5074235;28;20233;-76
2022/06/09 04:43:01;;;;;;;19.55;3.67;;;15.10;99.90;;;;;;5073004;28;20207;-76
2022/06/09 04:45:27;;;;;;;28.85;4.40;;;15.40;99.90;;;;;;5073352;28;20542;-76
2022/06/09 04:47:53;;;;;;;20.05;3.83;;;15.50;99.90;;;;;;5073861;28;20154;-77
2022/06/09 04:50:19;;;;;;;10.88;3.20;;;15.70;99.90;;;;;;5072625;28;20193;-77
2022/06/09 04:52:46;;;;;;;17.83;3.15;;;15.60;99.90;;;;;;5073626;28;20223;-78
2022/06/09 04:55:12;;;;;;;25.95;3.40;;;15.70;99.90;;;;;;5073845;28;20215;-77
2022/06/09 04:57:38;;;;;;;11.00;2.25;;;16.00;99.90;;;;;;5073697;28;20170;-77
2022/06/09 05:00:06;;;;;;;18.83;2.75;;;15.80;99.90;;;;;;5071923;28;20221;-77
2022/06/09 05:02:32;;;;;;;18.67;4.63;;;15.90;99.90;;;;;;5073712;28;20531;-78
2022/06/09 05:04:58;;;;;;;20.40;3.33;;;16.10;99.90;;;;;;5073391;28;20779;-79
2022/06/09 05:07:23;;;;;;;9.98;2.72;;;16.30;99.90;;;;;;5073071;28;20246;-78
2022/06/09 05:09:49;;;;;;;25.67;3.13;;;16.40;99.90;;;;;;5073588;28;20631;-77
2022/06/09 05:12:15;;;;;;;10.65;2.92;;;16.50;99.90;;;;;;5073221;28;20205;-77
2022/06/09 05:14:41;;;;;;;14.98;2.80;;;16.50;99.90;;;;;;5073330;28;20173;-77
2022/06/09 05:17:07;;;;;;;13.95;2.88;;;16.60;99.90;;;;;;5073470;28;20162;-79
2022/06/09 05:19:32;;;;;;;23.83;3.63;;;17.00;99.90;;;;;;5072882;28;20206;-77
2022/06/09 05:21:58;;;;;;;14.40;3.28;;;16.90;99.90;;;;;;5073117;28;20507;-77
2022/06/09 05:24:24;;;;;;;22.45;2.47;;;16.60;99.90;;;;;;5073157;28;20166;-78
2022/06/09 05:26:49;;;;;;;29.40;3.70;;;16.70;99.90;;;;;;5072231;28;20163;-78
2022/06/09 05:29:16;;;;;;;13.30;2.85;;;16.70;99.90;;;;;;5072765;28;20197;-78
2022/06/09 05:31:43;;;;;;;13.48;3.05;;;16.40;99.90;;;;;;5072683;28;20166;-77
2022/06/09 05:34:09;;;;;;;14.82;3.20;;;16.40;99.90;;;;;;5071786;28;20223;-78
2022/06/09 05:36:35;;;;;;;18.38;3.25;;;16.40;99.90;;;;;;5072491;28;20167;-81
2022/06/09 05:47:13;;;;;;;9.68;2.45;;;16.40;99.90;;;;;;5072092;28;20258;-78
2022/06/09 05:49:38;;;;;;;14.68;3.65;;;16.40;99.90;;;;;;5071628;28;20285;-83
2022/06/09 05:52:04;;;;;;;10.18;2.33;;;16.40;99.90;;;;;;5071900;28;20637;-77
2022/06/09 05:54:29;;;;;;;16.00;2.40;;;16.30;99.90;;;;;;5070961;28;20598;-78
2022/06/09 05:56:57;;;;;;;13.20;3.33;;;16.50;99.90;;;;;;5070967;28;20232;-79
2022/06/09 05:59:22;;;;;;;18.83;3.38;;;16.60;99.90;;;;;;5076101;28;20206;-87
2022/06/09 06:01:48;;;;;;;11.80;2.63;;;16.80;99.90;;;;;;5072944;28;20710;-83
2022/06/09 06:04:15;;;;;;;17.33;3.25;;;17.00;99.90;;;;;;5073403;28;20198;-78
2022/06/09 06:06:41;;;;;;;23.98;2.30;;;17.00;99.90;;;;;;5072937;28;20163;-82
2022/06/09 06:09:12;;;;;;;17.33;2.97;;;17.20;99.90;;;;;;5073037;28;20193;-82
2022/06/09 06:11:39;;;;;;;8.68;2.53;;;17.00;99.90;;;;;;5073211;28;20168;-82
2022/06/09 06:14:07;;;;;;;12.35;2.65;;;16.90;99.90;;;;;;5071287;28;20253;-85
2022/06/09 06:16:33;;;;;;;25.27;3.33;;;17.00;99.90;;;;;;5072738;28;20165;-83
2022/06/09 06:18:58;;;;;;;17.17;2.55;;;17.20;99.90;;;;;;5071077;28;20625;-83
2022/06/09 06:21:24;;;;;;;21.23;3.28;;;17.20;99.90;;;;;;5071859;28;20171;-83
2022/06/09 06:23:50;;;;;;;10.07;2.22;;;17.60;99.90;;;;;;5070709;28;20258;-80
2022/06/09 06:26:17;;;;;;;13.02;2.63;;;18.00;99.90;;;;;;5071652;28;20158;-81
2022/06/09 06:28:43;;;;;;;17.25;2.63;;;18.40;99.90;;;;;;5071200;28;20357;-81
2022/06/09 06:31:09;;;;;;;14.05;2.67;;;18.70;99.90;;;;;;5070958;28;20224;-82
2022/06/09 06:33:34;;;;;;;7.90;2.50;;;18.50;99.90;;;;;;5069788;28;20167;-81
2022/06/09 06:36:00;;;;;;;15.40;2.13;;;18.40;99.90;;;;;;5071588;28;20209;-81
2022/06/09 06:38:26;;;;;;;9.75;2.25;;;18.20;99.90;;;;;;5071785;28;20162;-82
2022/06/09 06:40:51;;;;;;;28.05;4.60;;;18.10;99.90;;;;;;5070147;28;20293;-81
2022/06/09 06:43:17;;;;;;;17.23;2.83;;;17.70;99.90;;;;;;5070357;28;20166;-80
2022/06/09 06:45:43;;;;;;;10.80;2.45;;;17.90;99.90;;;;;;5070999;28;20173;-82
2022/06/09 06:48:09;;;;;;;11.93;3.05;;;18.30;99.90;;;;;;5071215;28;20162;-82
2022/06/09 06:50:35;;;;;;;15.45;3.13;;;18.40;99.90;;;;;;5071870;28;20214;-80
2022/06/09 06:53:01;;;;;;;18.73;2.67;;;18.30;99.90;;;;;;5070432;28;20583;-81
2022/06/09 06:55:27;;;;;;;21.30;3.00;;;18.20;99.90;;;;;;5070176;28;20303;-81
2022/06/09 06:57:53;;;;;;;20.60;2.83;;;18.30;99.90;;;;;;5071905;28;20314;-79
2022/06/09 07:00:22;;;;;;;20.98;3.60;;;18.60;99.90;;;;;;5071542;28;20664;-79
2022/06/09 07:02:48;;;;;;;15.50;2.53;;;18.70;99.90;;;;;;5070304;28;20204;-76
2022/06/09 07:05:15;;;;;;;9.77;2.35;;;19.30;99.90;;;;;;5071509;28;20193;-81
2022/06/09 07:07:41;;;;;;;11.38;2.65;;;19.80;99.90;;;;;;5072469;28;20194;-79
2022/06/09 07:10:08;;;;;;;21.35;2.70;;;19.70;99.90;;;;;;5076042;28;20272;-78
2022/06/09 07:12:34;;;;;;;7.63;2.05;;;19.70;99.90;;;;;;5075610;28;20166;-78
2022/06/09 07:15:00;;;;;;;10.93;2.60;;;20.10;99.90;;;;;;5073855;28;20507;-77
2022/06/09 07:17:25;;;;;;;14.70;2.38;;;20.20;99.90;;;;;;5074269;28;20237;-78
2022/06/09 07:19:51;;;;;;;14.85;2.38;;;20.00;99.90;;;;;;5073902;28;20291;-79
2022/06/09 07:22:17;;;;;;;10.90;2.75;;;20.70;99.90;;;;;;5075387;28;20220;-79
2022/06/09 07:24:43;;;;;;;10.82;2.58;;;20.90;99.90;;;;;;5075174;28;20162;-80
2022/06/09 07:27:08;;;;;;;13.68;2.20;;;20.40;99.90;;;;;;5075229;28;20171;-78
2022/06/09 07:29:34;;;;;;;15.15;2.83;;;20.50;99.90;;;;;;5075201;28;20593;-81
2022/06/09 07:32:00;;;;;;;13.13;2.65;;;20.50;99.90;;;;;;5073978;28;20253;-80
2022/06/09 07:34:26;;;;;;;12.18;2.22;;;20.90;99.90;;;;;;5073881;28;20523;-80
2022/06/09 07:36:52;;;;;;;17.25;3.50;;;21.00;99.90;;;;;;5061238;28;20162;-80
2022/06/09 07:39:18;;;;;;;19.85;3.08;;;20.60;99.90;;;;;;5074896;28;20206;-81
2022/06/09 07:41:44;;;;;;;20.67;7.05;;;20.00;99.90;;;;;;5073315;28;20175;-80
2022/06/09 07:44:10;;;;;;;34.03;13.75;;;20.40;99.90;;;;;;5073075;28;20175;-80
2022/06/09 07:46:36;;;;;;;19.45;8.48;;;20.70;99.90;;;;;;5071521;28;20684;-80
2022/06/09 07:49:03;;;;;;;12.55;6.40;;;20.70;99.90;;;;;;5071022;28;20202;-81
2022/06/09 07:51:30;;;;;;;9.95;2.60;;;20.80;99.90;;;;;;5065869;28;20170;-80
2022/06/09 07:53:56;;;;;;;16.00;2.72;;;20.60;99.90;;;;;;5072990;28;20183;-80
2022/06/09 07:56:23;;;;;;;12.32;2.85;;;20.80;99.90;;;;;;5073974;28;20170;-80
2022/06/09 07:58:48;;;;;;;9.48;3.47;;;21.00;99.90;;;;;;5073601;28;20198;-80
2022/06/09 08:01:17;;;;;;;18.52;3.20;;;20.60;99.90;;;;;;5073650;28;20253;-81
2022/06/09 08:03:43;;;;;;;7.95;2.60;;;20.30;99.90;;;;;;5068209;28;20179;-80
2022/06/09 08:06:10;;;;;;;18.63;3.10;;;20.30;99.90;;;;;;5053785;28;20215;-80
2022/06/09 08:08:36;;;;;;;12.40;3.13;;;20.60;99.90;;;;;;5053722;28;20232;-81
2022/06/09 08:11:05;;;;;;;11.70;2.65;;;20.60;99.90;;;;;;5052640;28;20175;-81
2022/06/09 08:13:32;;;;;;;18.80;2.92;;;20.50;99.90;;;;;;5053415;28;20178;-81
2022/06/09 08:15:57;;;;;;;15.63;2.78;;;20.50;99.90;;;;;;5051787;28;20174;-80
2022/06/09 08:18:23;;;;;;;16.60;3.70;;;20.50;99.90;;;;;;5053560;28;20171;-81
2022/06/09 08:20:48;;;;;;;10.60;2.85;;;20.70;99.90;;;;;;5051217;28;20310;-80
2022/06/09 08:23:21;;;;;;;10.27;2.65;;;20.80;99.90;;;;;;5054276;28;20171;-81
2022/06/09 08:25:49;;;;;;;20.17;2.75;;;20.80;99.90;;;;;;5073137;28;20198;-80
2022/06/09 08:28:19;;;;;;;15.75;3.47;;;20.80;99.90;;;;;;5072074;28;20163;-80
2022/06/09 08:30:51;;;;;;;7.97;2.67;;;20.80;99.90;;;;;;5072165;28;20523;-80
2022/06/09 08:33:17;;;;;;;12.20;3.22;;;20.80;99.90;;;;;;5071827;28;20232;-80
2022/06/09 08:35:44;;;;;;;9.13;2.47;;;20.90;99.90;;;;;;5052194;28;20267;-79
2022/06/09 08:38:10;;;;;;;16.48;2.78;;;21.10;99.90;;;;;;5069213;28;20229;-79
2022/06/09 08:41:17;;;;;;;16.92;2.67;;;21.10;99.90;;;;;;5071938;28;20206;-79
2022/06/09 08:44:21;;;;;;;16.88;2.17;;;21.70;99.90;;;;;;5073167;28;20266;-80
2022/06/09 08:47:34;;;;;;;13.02;2.72;;;22.00;99.90;;;;;;5072706;28;20178;-79
2022/06/09 08:50:06;;;;;;;10.68;2.65;;;22.70;99.90;;;;;;5049674;28;20203;-80
2022/06/09 08:52:46;;;;;;;6.18;1.90;;;22.80;99.90;;;;;;5073646;28;20594;-81
2022/06/09 08:55:24;;;;;;;9.23;2.42;;;23.00;99.90;;;;;;5073255;28;20173;-80
2022/06/09 08:57:52;;;;;;;6.32;2.75;;;22.40;99.90;;;;;;5056486;28;20183;-80
2022/06/09 09:00:22;;;;;;;7.82;2.83;;;22.10;99.90;;;;;;5053288;28;20248;-80
2022/06/09 09:03:03;;;;;;;13.65;2.83;;;22.10;99.90;;;;;;5052377;28;20856;-81
2022/06/09 09:05:49;;;;;;;10.52;2.72;;;21.80;99.90;;;;;;5052408;28;20240;-81
2022/06/09 09:08:15;;;;;;;17.08;2.53;;;21.50;99.90;;;;;;5069334;28;20175;-81
2022/06/09 09:10:50;;;;;;;11.15;2.00;;;21.40;99.90;;;;;;5071557;28;20190;-81
2022/06/09 09:13:21;;;;;;;14.40;3.13;;;21.30;99.90;;;;;;5073049;28;20629;-80
2022/06/09 09:15:56;;;;;;;8.93;2.75;;;21.50;99.90;;;;;;5072796;28;20170;-80
2022/06/09 09:18:48;;;;;;;12.23;2.70;;;21.60;99.90;;;;;;5071000;28;20177;-79
2022/06/09 09:21:22;;;;;;;9.40;2.55;;;21.80;99.90;;;;;;5072881;28;20661;-79
2022/06/09 09:23:47;;;;;;;9.57;2.58;;;21.40;99.90;;;;;;5072759;28;20170;-79
2022/06/09 09:26:33;;;;;;;13.20;2.28;;;21.40;99.90;;;;;;5070734;28;20174;-79
2022/06/09 09:29:14;;;;;;;12.65;2.92;;;21.40;99.90;;;;;;5051281;28;20191;-80
2022/06/09 09:32:01;;;;;;;8.77;2.60;;;21.50;99.90;;;;;;5052853;28;20224;-81
2022/06/09 09:34:40;;;;;;;9.07;2.97;;;21.00;99.90;;;;;;5052583;28;20171;-79
2022/06/09 09:37:21;;;;;;;9.68;2.60;;;20.80;99.90;;;;;;5050029;28;20278;-80
2022/06/09 09:39:54;;;;;;;6.88;2.80;;;20.80;99.90;;;;;;5052276;28;20211;-80
2022/06/09 09:42:37;;;;;;;8.90;2.53;;;20.80;99.90;;;;;;5050501;28;20167;-80
2022/06/09 09:45:08;;;;;;;6.90;2.45;;;20.80;99.90;;;;;;5035112;28;20516;-80
2022/06/09 09:47:42;;;;;;;13.25;2.70;;;20.50;99.90;;;;;;5049182;28;20182;-79
2022/06/09 09:50:19;;;;;;;15.30;2.50;;;20.70;99.90;;;;;;5049512;28;20410;-79
2022/06/09 09:52:46;;;;;;;9.77;2.20;;;21.00;99.90;;;;;;5051419;28;20165;-79
2022/06/09 09:55:32;;;;;;;3.53;1.88;;;21.50;99.90;;;;;;5051791;28;20595;-80
2022/06/09 09:58:28;;;;;;;13.05;5.35;;;21.70;99.90;;;;;;5049814;28;20167;-80
2022/06/09 10:01:16;;;;;;;5.80;2.03;;;21.80;99.90;;;;;;5050215;28;20217;-80
2022/06/09 10:09:34;;;;;;;7.03;1.98;;;22.00;99.90;;;;;;5051228;28;20201;-80
2022/06/09 10:12:26;;;;;;;5.95;1.90;;;22.10;99.90;;;;;;5049694;28;20187;-80
2022/06/09 10:14:56;;;;;;;4.47;1.50;;;22.40;99.90;;;;;;5051347;28;20571;-80
2022/06/09 10:17:24;;;;;;;6.13;1.77;;;22.50;99.90;;;;;;5051443;28;20179;-80
2022/06/09 10:19:58;;;;;;;7.28;1.88;;;22.40;99.90;;;;;;5050860;28;20295;-80
2022/06/09 10:22:27;;;;;;;5.80;1.38;;;22.00;99.90;;;;;;5051329;28;20252;-79
2022/06/09 10:25:13;;;;;;;4.38;1.50;;;21.80;99.90;;;;;;5051260;28;20654;-80
2022/06/09 10:27:41;;;;;;;8.70;1.50;;;22.30;99.90;;;;;;5050861;28;20167;-82
2022/06/09 10:30:22;;;;;;;12.63;1.50;;;22.50;99.90;;;;;;5051745;28;20207;-83
2022/06/09 10:33:03;;;;;;;5.35;1.65;;;22.30;99.90;;;;;;5051310;28;20673;-82
2022/06/09 10:35:43;;;;;;;9.00;1.70;;;22.70;99.90;;;;;;5050784;28;20190;-83
2022/06/09 10:38:44;;;;;;;10.15;2.33;;;22.90;99.90;;;;;;5051746;28;20194;-84
2022/06/09 10:41:13;;;;;;;7.38;2.10;;;23.10;99.90;;;;;;5043401;28;20249;-82
2022/06/09 10:43:51;;;;;;;7.63;1.92;;;23.20;99.90;;;;;;5051528;28;20195;-81
2022/06/09 10:46:35;;;;;;;5.60;1.75;;;22.80;99.90;;;;;;5050640;28;20170;-79
2022/06/09 10:55:14;;;;;;;7.10;1.83;;;22.90;99.90;;;;;;5071484;28;20251;-78
2022/06/09 10:58:13;;;;;;;12.68;2.17;;;22.30;99.90;;;;;;5060429;28;20171;-79
2022/06/09 11:00:47;;;;;;;9.45;1.80;;;22.10;99.90;;;;;;5049717;28;20207;-81
2022/06/09 11:03:23;;;;;;;4.35;1.50;;;21.80;99.90;;;;;;5051031;28;20628;-77
2022/06/09 11:06:12;;;;;;;12.57;1.75;;;21.60;99.90;;;;;;5051236;28;20217;-77
2022/06/09 11:09:07;;;;;;;5.15;2.20;;;21.80;99.90;;;;;;5050667;28;20262;-78
2022/06/09 11:12:08;;;;;;;15.88;3.15;;;21.90;99.90;;;;;;5051394;28;20592;-78
2022/06/09 11:14:58;;;;;;;20.98;2.40;;;22.30;99.90;;;;;;5048396;28;20171;-79
2022/06/09 11:17:35;;;;;;;12.70;2.22;;;22.50;99.90;;;;;;5051113;28;20229;-80
2022/06/09 11:20:22;;;;;;;10.02;2.15;;;22.90;99.90;;;;;;5050568;28;20202;-83
2022/06/09 11:23:06;;;;;;;12.63;2.80;;;23.30;99.90;;;;;;5051232;28;20156;-77
2022/06/09 11:25:36;;;;;;;12.25;2.50;;;23.20;99.90;;;;;;5049411;28;20179;-78
2022/06/09 11:28:41;;;;;;;4.28;1.83;;;23.20;99.90;;;;;;5050901;28;20206;-77
2022/06/09 11:31:39;;;;;;;22.13;2.78;;;23.00;99.90;;;;;;5040067;28;20274;-80
2022/06/09 11:34:22;;;;;;;8.75;2.90;;;22.80;99.90;;;;;;5050292;28;20632;-78
2022/06/09 11:37:09;;;;;;;2.80;1.80;;;22.70;99.90;;;;;;5052901;28;20224;-78
2022/06/09 11:39:42;;;;;;;4.28;1.58;;;22.70;99.90;;;;;;5070729;28;20607;-80
2022/06/09 11:42:48;;;;;;;8.20;1.92;;;22.90;99.90;;;;;;5069995;28;20483;-80
2022/06/09 11:45:17;;;;;;;10.82;1.67;;;23.20;99.90;;;;;;5052589;28;20175;-79
2022/06/09 11:47:46;;;;;;;10.27;1.92;;;23.20;99.90;;;;;;5049437;28;20690;-78
2022/06/09 11:50:21;;;;;;;12.68;2.10;;;23.30;99.90;;;;;;5049288;28;20219;-79
2022/06/09 11:52:49;;;;;;;15.13;2.20;;;23.30;99.90;;;;;;5049883;28;20253;-81
2022/06/09 11:58:34;;;;;;;8.40;2.28;;;23.60;99.90;;;;;;5053715;28;20178;-81
2022/06/09 12:01:31;;;;;;;13.02;1.88;;;23.90;99.90;;;;;;5071697;28;20221;-80
2022/06/09 12:04:25;;;;;;;10.82;2.50;;;24.20;99.90;;;;;;5073278;28;20214;-80
2022/06/09 12:07:19;;;;;;;15.05;2.88;;;23.80;99.90;;;;;;5074767;28;20185;-83
2022/06/09 12:10:21;;;;;;;8.45;2.05;;;23.40;99.90;;;;;;5072281;28;20198;-79
2022/06/09 12:13:16;;;;;;;5.50;2.17;;;23.30;99.90;;;;;;5058271;28;20665;-79
2022/06/09 12:16:06;;;;;;;8.70;2.22;;;22.80;99.90;;;;;;5053708;28;20172;-82
2022/06/09 12:18:48;;;;;;;4.43;1.90;;;22.20;99.90;;;;;;5054412;28;20175;-81
2022/06/09 12:21:31;;;;;;;6.45;1.75;;;22.10;99.90;;;;;;5052401;28;20171;-82
2022/06/09 12:24:01;;;;;;;7.53;2.42;;;22.30;99.90;;;;;;5054348;28;20260;-83
2022/06/09 12:26:36;;;;;;;10.60;2.90;;;22.50;99.90;;;;;;5054271;28;20169;-81
2022/06/09 12:29:36;;;;;;;17.70;2.42;;;22.50;99.90;;;;;;5053975;28;20305;-80
2022/06/09 12:32:08;;;;;;;5.68;2.33;;;22.60;99.90;;;;;;5053789;28;20202;-83
2022/06/09 12:34:46;;;;;;;9.70;2.40;;;22.80;99.90;;;;;;5053793;28;20644;-82
2022/06/09 12:37:26;;;;;;;6.03;2.70;;;23.00;99.90;;;;;;5053901;28;20167;-79
2022/06/09 12:39:59;;;;;;;9.05;1.60;;;22.80;99.90;;;;;;5052370;28;20210;-80
2022/06/09 12:42:59;;;;;;;10.65;2.38;;;22.70;99.90;;;;;;5051763;28;20624;-83
2022/06/09 12:45:30;;;;;;;7.75;2.03;;;22.80;99.90;;;;;;5048359;28;20575;-78
2022/06/09 12:48:14;;;;;;;9.02;2.78;;;22.80;99.90;;;;;;5053964;28;20174;-80
2022/06/09 12:50:44;;;;;;;6.65;2.40;;;22.70;99.90;;;;;;5052523;28;20604;-80
2022/06/09 12:53:23;;;;;;;15.60;1.85;;;23.20;99.90;;;;;;5052932;28;20250;-82
2022/06/09 12:55:57;;;;;;;9.00;2.47;;;23.70;99.90;;;;;;5062444;28;20193;-80
2022/06/09 12:58:31;;;;;;;6.95;1.60;;;23.80;99.90;;;;;;5074059;28;20166;-80
2022/06/09 13:01:01;;;;;;;4.18;1.83;;;23.50;99.90;;;;;;5072753;28;20201;-80
2022/06/09 13:03:39;;;;;;;10.98;2.13;;;23.40;99.90;;;;;;5072283;28;20229;-82
2022/06/09 13:06:26;;;;;;;4.57;1.75;;;23.40;99.90;;;;;;5071151;28;20567;-81
2022/06/09 13:08:56;;;;;;;10.45;2.13;;;23.30;99.90;;;;;;5073403;28;20197;-83
2022/06/09 13:14:22;;;;;;;6.95;1.42;;;22.90;99.90;;;;;;5059771;28;20201;-80
2022/06/09 13:16:50;;;;;;;21.55;1.83;;;22.70;99.90;;;;;;5053436;28;20209;-80
2022/06/09 13:19:19;;;;;;;17.60;2.15;;;22.60;99.90;;;;;;5054500;28;20231;-77
2022/06/09 13:21:46;;;;;;;9.20;1.52;;;22.60;99.90;;;;;;5052812;28;20246;-80
2022/06/09 13:24:22;;;;;;;9.25;2.40;;;22.70;99.90;;;;;;5052917;28;20171;-78
2022/06/09 13:26:50;;;;;;;10.13;1.77;;;23.00;99.90;;;;;;5053208;28;20221;-81
2022/06/09 13:29:53;;;;;;;5.22;1.50;;;23.10;99.90;;;;;;5053372;28;20613;-78